Time;durP1;ratioP1;P1;durP2;ratioP2;P2;SDS_P1;SDS_P2;PMS_P1;PMS_P2;Temp;Humidity;BMP_temperature;BMP_pressure;BME280_temperature;BME280_humidity;BME280_pressure;Samples;Min_cycle;Max_cycle;Signal;HPM_P1;HPM_P2
2022/11/09 00:02:06;;;;;;;40.63;28.17;;;23.20;97.00;;;;;;1765581;81;21160;-82
2022/11/09 00:04:38;;;;;;;33.67;25.17;;;23.00;96.60;;;;;;1768705;80;21167;-83
2022/11/09 00:07:09;;;;;;;33.20;24.87;;;23.20;96.40;;;;;;1771297;79;21223;-83
2022/11/09 00:09:40;;;;;;;30.50;23.95;;;23.20;96.60;;;;;;1791545;79;21159;-83
2022/11/09 00:12:11;;;;;;;30.85;23.80;;;23.40;96.40;;;;;;1766594;80;21104;-82
2022/11/09 00:14:41;;;;;;;33.90;25.10;;;23.30;96.20;;;;;;1762835;79;21162;-82
2022/11/09 00:17:12;;;;;;;30.08;22.07;;;23.40;95.90;;;;;;1763489;79;21116;-83
2022/11/09 00:19:43;;;;;;;31.25;24.07;;;23.50;96.10;;;;;;1763641;81;21521;-82
2022/11/09 00:22:14;;;;;;;28.95;24.23;;;23.70;96.10;;;;;;1762349;81;21145;-83
2022/11/09 00:24:45;;;;;;;47.13;36.85;;;23.70;96.00;;;;;;1771392;79;21708;-82
2022/11/09 00:27:16;;;;;;;42.23;32.80;;;23.70;95.80;;;;;;1771465;81;21303;-83
2022/11/09 00:29:47;;;;;;;36.93;28.20;;;23.70;95.80;;;;;;1764738;79;21182;-83
2022/11/09 00:32:18;;;;;;;34.53;26.95;;;23.70;95.90;;;;;;1759598;79;21135;-83
2022/11/09 00:34:50;;;;;;;29.30;24.72;;;24.00;96.00;;;;;;1781886;79;21623;-83
2022/11/09 00:37:21;;;;;;;27.60;23.70;;;23.80;95.60;;;;;;1763513;81;21215;-83
2022/11/09 00:39:52;;;;;;;32.83;24.32;;;23.90;95.50;;;;;;1773912;80;21167;-83
2022/11/09 00:42:23;;;;;;;29.07;22.75;;;24.00;95.60;;;;;;1772217;81;21239;-82
2022/11/09 00:44:54;;;;;;;27.48;23.05;;;24.00;95.40;;;;;;1768439;79;21108;-84
2022/11/09 00:47:26;;;;;;;28.55;21.23;;;24.20;95.60;;;;;;1769899;80;21196;-81
2022/11/09 00:49:57;;;;;;;31.62;21.95;;;24.20;95.70;;;;;;1773904;80;21158;-73
2022/11/09 00:52:28;;;;;;;25.97;20.40;;;24.20;95.50;;;;;;1768219;80;21139;-74
2022/11/09 00:54:59;;;;;;;31.20;21.55;;;24.20;95.30;;;;;;1786899;79;21207;-74
2022/11/09 00:57:31;;;;;;;26.82;19.23;;;24.30;95.40;;;;;;1767328;80;21143;-74
2022/11/09 01:00:04;;;;;;;26.17;20.52;;;24.50;95.50;;;;;;1767831;80;21638;-74
2022/11/09 01:02:34;;;;;;;23.77;19.70;;;24.40;95.60;;;;;;1769979;79;21213;-73
2022/11/09 01:05:06;;;;;;;23.87;18.62;;;24.40;95.40;;;;;;1777270;79;21147;-75
2022/11/09 01:07:39;;;;;;;29.23;20.92;;;24.40;95.30;;;;;;1758424;79;21182;-75
2022/11/09 01:10:10;;;;;;;24.87;19.90;;;24.40;95.40;;;;;;1775721;80;21175;-74
2022/11/09 01:12:42;;;;;;;23.18;19.20;;;24.60;95.50;;;;;;1765406;79;21221;-75
2022/11/09 01:15:13;;;;;;;29.55;20.92;;;24.70;95.30;;;;;;1764034;79;21143;-75
2022/11/09 01:17:46;;;;;;;25.92;20.08;;;24.60;95.20;;;;;;1774190;81;21182;-75
2022/11/09 01:20:18;;;;;;;26.95;19.98;;;24.70;94.90;;;;;;1773176;80;21191;-74
2022/11/09 01:23:08;;;;;;;27.13;19.60;;;24.60;95.30;;;;;;1739324;79;21127;-76
2022/11/09 01:25:39;;;;;;;26.50;20.30;;;24.60;95.50;;;;;;1745067;80;21112;-74
2022/11/09 01:28:11;;;;;;;28.92;21.33;;;24.70;95.40;;;;;;1715267;82;21207;-75
2022/11/09 01:30:43;;;;;;;25.92;19.98;;;24.80;95.60;;;;;;1755878;80;21199;-75
2022/11/09 01:33:14;;;;;;;27.05;20.52;;;24.80;95.80;;;;;;1754920;80;21682;-75
2022/11/09 01:35:45;;;;;;;23.62;20.50;;;24.80;95.60;;;;;;1751483;81;21143;-73
2022/11/09 01:38:16;;;;;;;25.02;20.48;;;24.70;95.70;;;;;;1754074;81;21192;-75
2022/11/09 01:40:47;;;;;;;26.00;20.17;;;24.80;95.90;;;;;;1754815;80;21163;-74
2022/11/09 01:43:21;;;;;;;24.43;19.45;;;24.80;95.70;;;;;;1752018;80;21116;-76
2022/11/09 01:46:00;;;;;;;23.65;19.10;;;25.10;95.60;;;;;;1756779;80;21100;-74
2022/11/09 01:48:49;;;;;;;24.10;20.12;;;25.00;95.70;;;;;;1749863;80;21785;-74
2022/11/09 01:51:26;;;;;;;23.27;19.17;;;25.20;95.40;;;;;;1756513;80;21257;-76
2022/11/09 01:53:59;;;;;;;26.55;19.52;;;25.00;95.40;;;;;;1748501;80;21225;-75
2022/11/09 01:56:32;;;;;;;25.70;18.07;;;25.10;95.30;;;;;;1753064;80;21700;-74
2022/11/09 01:59:12;;;;;;;24.85;18.98;;;25.10;95.00;;;;;;1754397;80;21123;-75
2022/11/09 02:01:44;;;;;;;21.85;17.57;;;25.20;94.90;;;;;;1756813;80;21159;-74
2022/11/09 02:04:27;;;;;;;24.35;18.57;;;25.40;95.00;;;;;;1753973;82;21215;-74
2022/11/09 02:06:59;;;;;;;23.40;18.95;;;25.30;94.70;;;;;;1753420;80;21130;-75
2022/11/09 02:09:41;;;;;;;25.25;19.07;;;25.40;94.70;;;;;;1750626;81;21187;-74
2022/11/09 02:12:12;;;;;;;22.42;17.77;;;25.60;94.50;;;;;;1752924;81;21206;-74
2022/11/09 02:17:36;;;;;;;20.43;17.12;;;25.50;92.60;;;;;;1812098;77;21608;-74
2022/11/09 02:20:14;;;;;;;28.55;19.57;;;25.50;92.80;;;;;;1814404;78;21304;-75
2022/11/09 02:22:46;;;;;;;22.52;18.23;;;25.60;92.60;;;;;;1824662;78;21165;-74
2022/11/09 02:25:17;;;;;;;21.80;18.02;;;25.60;92.50;;;;;;1834650;77;21118;-76
2022/11/09 02:27:49;;;;;;;22.65;18.02;;;25.70;92.40;;;;;;1822582;78;21480;-73
2022/11/09 02:30:21;;;;;;;22.60;18.12;;;25.70;92.30;;;;;;1819768;78;21482;-74
2022/11/09 02:32:52;;;;;;;21.27;18.57;;;25.90;92.40;;;;;;1780644;80;21580;-74
2022/11/09 02:35:23;;;;;;;25.25;19.23;;;25.90;92.50;;;;;;1828900;78;21155;-74
2022/11/09 02:37:54;;;;;;;25.77;18.60;;;25.90;92.60;;;;;;1822123;77;21157;-74
2022/11/09 02:40:28;;;;;;;21.70;18.45;;;26.00;92.50;;;;;;1830484;77;21191;-73
2022/11/09 02:43:03;;;;;;;20.37;18.17;;;26.20;92.50;;;;;;1827732;78;21196;-74
2022/11/09 02:45:34;;;;;;;26.12;18.32;;;26.30;92.70;;;;;;1814394;79;21134;-74
2022/11/09 02:48:06;;;;;;;21.68;17.15;;;26.20;91.90;;;;;;1812162;78;21198;-74
2022/11/09 02:50:37;;;;;;;20.08;16.67;;;26.30;91.70;;;;;;1824354;78;21112;-74
2022/11/09 02:53:08;;;;;;;23.65;17.20;;;26.60;91.20;;;;;;1813890;79;21128;-76
2022/11/09 02:55:40;;;;;;;21.55;18.12;;;26.60;92.20;;;;;;1814061;78;21092;-74
2022/11/09 02:58:11;;;;;;;24.92;17.95;;;26.70;92.20;;;;;;1825551;78;21087;-74
2022/11/09 03:00:42;;;;;;;25.05;17.50;;;26.80;93.50;;;;;;1820275;78;21151;-73
2022/11/09 03:03:16;;;;;;;21.05;17.42;;;27.40;99.90;;;;;;1814504;78;21117;-76
2022/11/09 03:05:48;;;;;;;21.97;16.85;;;;;;;;;;1826803;78;21091;-74
2022/11/09 03:08:19;;;;;;;23.95;17.73;;;26.90;90.20;;;;;;1823825;77;21086;-75
2022/11/09 03:10:50;;;;;;;18.80;16.62;;;26.90;87.80;;;;;;1814511;78;21151;-75
2022/11/09 03:13:22;;;;;;;22.82;16.17;;;26.90;86.20;;;;;;1815445;79;21699;-73
2022/11/09 03:15:54;;;;;;;19.00;15.93;;;27.00;81.60;;;;;;1816764;78;21088;-72
2022/11/09 03:18:32;;;;;;;20.68;16.73;;;27.10;78.60;;;;;;1831436;78;21153;-73
2022/11/09 03:21:10;;;;;;;19.15;16.02;;;27.30;77.50;;;;;;1818919;78;21166;-73
2022/11/09 03:23:41;;;;;;;22.40;15.38;;;27.50;79.30;;;;;;1827778;77;21694;-74
2022/11/09 03:26:12;;;;;;;18.92;15.48;;;27.50;73.10;;;;;;1822305;78;21071;-74
2022/11/09 03:28:43;;;;;;;19.85;15.60;;;27.60;72.70;;;;;;1826189;78;21174;-73
2022/11/09 03:31:15;;;;;;;19.95;15.45;;;;;;;;;;1785866;78;21548;-74
2022/11/09 03:33:46;;;;;;;20.65;15.28;;;27.70;70.90;;;;;;1766609;80;21157;-73
2022/11/09 03:36:17;;;;;;;18.48;14.80;;;27.80;70.80;;;;;;1762821;80;21167;-74
2022/11/09 03:38:50;;;;;;;17.62;15.25;;;27.90;70.80;;;;;;1815585;78;21204;-74
2022/11/09 03:41:21;;;;;;;18.32;14.80;;;28.00;70.90;;;;;;1817866;78;21136;-75
2022/11/09 03:43:59;;;;;;;19.32;14.78;;;;;;;;;;1817319;78;21531;-73
2022/11/09 03:46:35;;;;;;;18.67;15.70;;;;;;;;;;1812337;78;21115;-74
2022/11/09 03:49:06;;;;;;;21.65;16.35;;;28.10;68.80;;;;;;1815584;79;21163;-75
2022/11/09 03:51:37;;;;;;;16.87;14.35;;;28.30;69.40;;;;;;1816222;78;21151;-74
2022/11/09 03:54:10;;;;;;;20.05;15.03;;;28.40;69.30;;;;;;1819282;77;21289;-74
2022/11/09 03:56:41;;;;;;;18.27;15.72;;;28.40;68.40;;;;;;1816445;78;21634;-73
2022/11/09 03:59:12;;;;;;;19.10;16.20;;;28.50;71.70;;;;;;1813170;79;21277;-74
2022/11/09 04:01:49;;;;;;;17.67;14.25;;;28.50;79.30;;;;;;1817706;78;21256;-74
2022/11/09 04:04:18;;;;;;;21.10;15.00;;;28.60;69.40;;;;;;1814134;78;21165;-75
2022/11/09 04:06:50;;;;;;;17.75;14.63;;;28.90;76.50;;;;;;1814348;78;21107;-74
2022/11/09 04:09:24;;;;;;;18.65;14.43;;;28.90;73.90;;;;;;1780250;79;21108;-75
2022/11/09 04:11:55;;;;;;;17.57;14.58;;;29.10;74.20;;;;;;1814557;78;21197;-74
2022/11/09 04:14:26;;;;;;;16.57;14.78;;;29.20;81.30;;;;;;1817497;77;21100;-74
2022/11/09 04:16:57;;;;;;;15.93;14.03;;;29.10;65.70;;;;;;1790361;78;21233;-76
2022/11/09 04:19:29;;;;;;;15.83;13.95;;;29.10;65.30;;;;;;1826322;77;21061;-74
2022/11/09 04:22:00;;;;;;;19.17;13.88;;;29.20;65.20;;;;;;1789498;79;21102;-73
2022/11/09 04:24:30;;;;;;;19.15;14.25;;;29.20;64.20;;;;;;1806883;79;21591;-73
2022/11/09 04:27:01;;;;;;;18.50;14.75;;;29.20;64.30;;;;;;1819117;77;21155;-75
2022/11/09 04:29:33;;;;;;;19.02;14.15;;;29.30;64.00;;;;;;1780767;80;21101;-74
2022/11/09 04:32:04;;;;;;;18.10;13.98;;;29.30;63.90;;;;;;1751688;81;21912;-74
2022/11/09 04:34:35;;;;;;;17.92;14.10;;;29.40;63.70;;;;;;1809141;78;21159;-73
2022/11/09 04:37:06;;;;;;;16.02;14.33;;;29.50;63.40;;;;;;1813466;78;21198;-74
2022/11/09 04:39:37;;;;;;;18.42;15.28;;;29.60;63.20;;;;;;1818806;77;21194;-74
2022/11/09 04:42:08;;;;;;;19.50;14.30;;;29.60;62.80;;;;;;1818928;77;21136;-74
2022/11/09 04:44:40;;;;;;;17.82;13.65;;;29.80;62.70;;;;;;1816500;78;21128;-74
2022/11/09 04:47:11;;;;;;;15.90;13.30;;;29.70;61.90;;;;;;1806471;77;21241;-75
2022/11/09 04:49:42;;;;;;;15.88;14.18;;;29.80;61.30;;;;;;1814835;77;21178;-75
2022/11/09 04:52:13;;;;;;;15.08;13.38;;;29.80;62.20;;;;;;1788301;78;21261;-76
2022/11/09 04:54:44;;;;;;;14.73;13.13;;;29.80;61.20;;;;;;1825731;77;21076;-74
2022/11/09 04:57:15;;;;;;;17.30;12.98;;;29.90;61.00;;;;;;1788783;78;21151;-75
2022/11/09 04:59:46;;;;;;;16.15;13.10;;;30.00;60.90;;;;;;1787388;79;21659;-75
2022/11/09 05:02:17;;;;;;;15.40;13.40;;;30.00;60.40;;;;;;1780953;78;21738;-74
2022/11/09 05:04:48;;;;;;;17.23;12.90;;;30.10;59.90;;;;;;1814822;77;21064;-74
2022/11/09 05:07:20;;;;;;;15.50;12.25;;;30.10;59.50;;;;;;1791644;78;21238;-76
2022/11/09 05:09:51;;;;;;;16.32;14.40;;;30.10;59.50;;;;;;1814413;78;21187;-74
2022/11/09 05:12:22;;;;;;;15.35;12.37;;;30.10;59.30;;;;;;1815900;77;21200;-74
2022/11/09 05:14:53;;;;;;;15.83;12.37;;;30.20;58.80;;;;;;1805834;78;21603;-73
2022/11/09 05:17:27;;;;;;;13.85;12.23;;;30.20;58.30;;;;;;1812135;78;21179;-75
2022/11/09 05:19:59;;;;;;;15.30;11.93;;;30.20;58.10;;;;;;1818521;78;21166;-74
2022/11/09 05:25:20;;;;;;;16.05;12.07;;;30.30;58.00;;;;;;1746678;82;21597;-75
2022/11/09 05:27:52;;;;;;;15.30;12.33;;;30.40;58.00;;;;;;1817538;78;21206;-76
2022/11/09 05:30:23;;;;;;;16.35;12.43;;;30.40;57.90;;;;;;1819898;77;21650;-75
2022/11/09 05:32:55;;;;;;;16.45;12.45;;;30.40;59.00;;;;;;1818595;79;21245;-75
2022/11/09 05:35:27;;;;;;;13.40;11.97;;;30.40;57.40;;;;;;1818066;78;21131;-75
2022/11/09 05:38:09;;;;;;;16.32;12.20;;;30.40;57.40;;;;;;1817933;77;21673;-75
2022/11/09 05:40:55;;;;;;;20.70;12.93;;;30.40;56.70;;;;;;1816453;78;21651;-74
2022/11/09 05:43:29;;;;;;;15.32;12.50;;;30.40;57.20;;;;;;1824135;78;21245;-73
2022/11/09 05:46:00;;;;;;;13.98;11.28;;;30.50;57.40;;;;;;1823452;77;21135;-75
2022/11/09 05:48:33;;;;;;;16.17;12.47;;;30.50;56.70;;;;;;1816813;77;21108;-73
2022/11/09 05:51:06;;;;;;;18.77;11.40;;;30.60;56.30;;;;;;1815085;78;21663;-75
2022/11/09 05:53:39;;;;;;;14.23;12.13;;;30.60;56.10;;;;;;1819014;77;21201;-75
2022/11/09 05:56:12;;;;;;;15.45;12.15;;;30.60;56.50;;;;;;1787369;80;21626;-75
2022/11/09 05:58:43;;;;;;;13.28;11.88;;;30.70;55.60;;;;;;1781953;79;21125;-75
2022/11/09 06:01:17;;;;;;;13.18;11.88;;;30.70;56.20;;;;;;1806772;78;21627;-75
2022/11/09 06:03:48;;;;;;;14.85;12.05;;;30.70;55.40;;;;;;1750690;81;21195;-75
2022/11/09 06:06:19;;;;;;;14.25;11.60;;;30.70;55.40;;;;;;1810239;77;21138;-76
2022/11/09 06:08:50;;;;;;;14.60;11.90;;;30.70;55.50;;;;;;1814949;78;21080;-76
2022/11/09 06:11:22;;;;;;;16.37;11.68;;;30.80;55.90;;;;;;1813594;78;21176;-75
2022/11/09 06:13:53;;;;;;;14.45;11.73;;;30.80;55.00;;;;;;1810445;77;21958;-75
2022/11/09 06:16:25;;;;;;;13.98;12.47;;;30.90;55.00;;;;;;1811115;78;21186;-75
2022/11/09 06:18:56;;;;;;;15.03;12.55;;;30.90;54.70;;;;;;1823478;77;21099;-76
2022/11/09 06:21:28;;;;;;;14.45;11.78;;;30.90;54.70;;;;;;1827661;78;21127;-75
2022/11/09 06:23:59;;;;;;;13.18;11.73;;;30.90;54.60;;;;;;1803347;78;21689;-76
2022/11/09 06:26:30;;;;;;;15.90;11.53;;;30.90;54.60;;;;;;1831115;77;21686;-74
2022/11/09 06:29:03;;;;;;;15.35;12.23;;;30.90;54.40;;;;;;1797170;78;21566;-74
2022/11/09 06:31:37;;;;;;;14.23;12.00;;;30.90;53.60;;;;;;1826433;77;21237;-77
2022/11/09 06:34:09;;;;;;;16.23;11.95;;;30.80;54.00;;;;;;1829162;77;21661;-75
2022/11/09 06:36:40;;;;;;;13.98;12.15;;;31.00;54.10;;;;;;1826929;78;21682;-73
2022/11/09 06:39:11;;;;;;;15.23;11.63;;;31.00;53.80;;;;;;1827295;77;21077;-76
2022/11/09 06:41:44;;;;;;;14.78;11.95;;;31.00;53.00;;;;;;1825356;77;21170;-73
2022/11/09 06:44:19;;;;;;;14.15;11.80;;;31.00;53.20;;;;;;1828578;77;21672;-76
2022/11/09 06:46:50;;;;;;;14.83;11.43;;;31.00;52.20;;;;;;1795783;78;21091;-75
2022/11/09 06:49:25;;;;;;;15.45;11.63;;;31.00;53.20;;;;;;1798957;78;21171;-74
2022/11/09 06:51:56;;;;;;;12.40;11.10;;;30.90;53.20;;;;;;1833992;77;21100;-74
2022/11/09 06:54:28;;;;;;;14.65;11.53;;;31.00;54.50;;;;;;1827935;78;21193;-74
2022/11/09 06:56:59;;;;;;;11.90;10.70;;;30.90;53.30;;;;;;1832866;77;21122;-75
2022/11/09 06:59:30;;;;;;;14.60;11.25;;;30.90;53.60;;;;;;1841697;77;21128;-75
2022/11/09 07:02:02;;;;;;;13.35;10.82;;;30.90;53.50;;;;;;1827417;77;21135;-75
2022/11/09 07:04:33;;;;;;;12.28;10.98;;;30.90;53.70;;;;;;1824517;78;21202;-74
2022/11/09 07:07:07;;;;;;;13.55;10.72;;;30.80;53.50;;;;;;1822388;77;21695;-74
2022/11/09 07:09:38;;;;;;;11.90;9.90;;;30.80;53.50;;;;;;1827505;77;21113;-75
2022/11/09 07:12:10;;;;;;;12.95;10.32;;;30.80;53.40;;;;;;1757963;81;21168;-74
2022/11/09 07:14:42;;;;;;;11.40;9.83;;;30.80;53.70;;;;;;1823697;78;21148;-75
2022/11/09 07:17:15;;;;;;;12.20;10.88;;;30.80;53.70;;;;;;1822979;77;21088;-75
2022/11/09 07:19:48;;;;;;;12.88;11.43;;;30.80;53.80;;;;;;1826298;77;21089;-73
2022/11/09 07:22:19;;;;;;;15.30;11.28;;;30.80;53.40;;;;;;1823904;78;21135;-74
2022/11/09 07:24:51;;;;;;;12.68;10.28;;;30.80;53.70;;;;;;1817043;78;21202;-74
2022/11/09 07:27:22;;;;;;;14.80;10.68;;;30.70;53.60;;;;;;1817746;78;21151;-73
2022/11/09 07:29:54;;;;;;;16.32;11.22;;;30.70;53.70;;;;;;1823477;78;21197;-74
2022/11/09 07:32:29;;;;;;;14.93;10.35;;;30.80;53.60;;;;;;1826354;78;21216;-75
2022/11/09 07:35:03;;;;;;;14.20;10.65;;;30.70;54.10;;;;;;1811479;78;21233;-75
2022/11/09 07:37:34;;;;;;;16.80;10.65;;;30.70;53.70;;;;;;1819124;78;21139;-75
2022/11/09 07:40:06;;;;;;;12.07;10.30;;;30.70;53.90;;;;;;1815068;78;21191;-75
2022/11/09 07:42:38;;;;;;;11.78;10.32;;;30.70;53.90;;;;;;1820982;78;21080;-74
2022/11/09 07:45:10;;;;;;;12.63;10.43;;;30.80;53.90;;;;;;1812974;77;21732;-75
2022/11/09 07:47:42;;;;;;;13.10;10.20;;;30.70;53.60;;;;;;1812051;77;21229;-74
2022/11/09 07:50:13;;;;;;;12.00;10.70;;;30.70;54.50;;;;;;1817633;78;21128;-74
2022/11/09 07:52:45;;;;;;;17.95;10.90;;;30.70;54.30;;;;;;1822039;78;21193;-74
2022/11/09 07:55:19;;;;;;;12.55;10.50;;;30.70;54.30;;;;;;1786863;80;21694;-77
2022/11/09 07:57:52;;;;;;;11.80;10.55;;;30.70;54.30;;;;;;1793622;79;21848;-73
2022/11/09 08:00:23;;;;;;;11.68;9.60;;;30.60;54.20;;;;;;1790983;79;21155;-74
2022/11/09 08:02:56;;;;;;;14.23;11.20;;;30.60;54.40;;;;;;1794233;79;21085;-73
2022/11/09 08:05:28;;;;;;;12.45;9.95;;;30.60;54.60;;;;;;1790477;79;21151;-74
2022/11/09 08:08:01;;;;;;;11.35;10.15;;;30.60;54.40;;;;;;1792901;79;21186;-74
2022/11/09 08:10:51;;;;;;;12.98;9.98;;;30.60;54.50;;;;;;1795208;79;21833;-74
2022/11/09 08:13:18;;;;;;;10.85;8.45;;;30.60;54.60;;;;;;1783548;79;21146;-74
2022/11/09 08:15:50;;;;;;;11.20;8.85;;;30.60;54.30;;;;;;1786911;80;21147;-73
2022/11/09 08:18:22;;;;;;;9.65;8.63;;;30.70;54.30;;;;;;1822141;78;21151;-76
2022/11/09 08:20:53;;;;;;;11.48;9.30;;;30.60;54.50;;;;;;1825761;77;21137;-75
2022/11/09 08:23:24;;;;;;;10.55;8.83;;;30.60;54.50;;;;;;1811805;78;21246;-75
2022/11/09 08:26:03;;;;;;;12.75;9.93;;;30.60;54.90;;;;;;1821467;77;21151;-75
2022/11/09 08:28:35;;;;;;;12.18;8.83;;;30.60;54.70;;;;;;1825610;77;21099;-74
2022/11/09 08:31:08;;;;;;;12.65;9.63;;;30.60;55.00;;;;;;1812599;78;21104;-76
2022/11/09 08:33:42;;;;;;;13.08;9.23;;;30.60;54.50;;;;;;1827932;78;21165;-74
2022/11/09 08:36:16;;;;;;;9.40;8.30;;;30.60;54.60;;;;;;1812928;77;21140;-74
2022/11/09 08:38:48;;;;;;;10.65;8.33;;;30.60;54.90;;;;;;1825555;77;21703;-74
2022/11/09 08:41:19;;;;;;;11.68;8.83;;;30.60;55.00;;;;;;1810003;78;21171;-75
2022/11/09 08:43:50;;;;;;;12.43;9.00;;;30.60;55.60;;;;;;1826478;78;21187;-74
2022/11/09 08:46:21;;;;;;;10.75;9.03;;;30.60;54.80;;;;;;1822197;77;21183;-74
2022/11/09 08:49:01;;;;;;;12.82;9.30;;;30.60;54.80;;;;;;1819865;78;21249;-76
2022/11/09 08:51:29;;;;;;;;;;;30.60;55.30;;;;;;1822396;78;21100;-73
2022/11/09 08:54:00;;;;;;;10.55;8.40;;;30.60;55.40;;;;;;1813994;78;20301;-74
2022/11/09 08:56:35;;;;;;;11.65;8.38;;;30.60;55.10;;;;;;1789182;78;21826;-73
2022/11/09 08:59:07;;;;;;;12.25;8.98;;;30.50;55.40;;;;;;1796396;79;21077;-75
2022/11/09 09:01:38;;;;;;;9.18;8.20;;;30.60;55.60;;;;;;1822898;78;21186;-74
2022/11/09 09:04:10;;;;;;;10.68;8.13;;;30.50;55.60;;;;;;1819260;78;21689;-76
2022/11/09 09:06:42;;;;;;;10.03;8.15;;;30.40;55.70;;;;;;1817113;77;21595;-74
2022/11/09 09:09:13;;;;;;;9.73;8.25;;;30.40;55.70;;;;;;1787532;80;21156;-73
2022/11/09 09:11:44;;;;;;;9.55;8.55;;;30.30;55.70;;;;;;1820568;78;21130;-74
2022/11/09 09:14:16;;;;;;;9.08;8.15;;;30.30;55.90;;;;;;1788630;80;21190;-75
2022/11/09 09:16:47;;;;;;;9.13;7.65;;;30.20;56.30;;;;;;1750403;81;21962;-74
2022/11/09 09:19:19;;;;;;;9.93;7.22;;;30.20;56.40;;;;;;1828663;78;21193;-74
2022/11/09 09:21:50;;;;;;;10.10;7.92;;;30.20;56.50;;;;;;1832854;78;21178;-75
2022/11/09 09:24:21;;;;;;;10.20;7.92;;;30.10;56.30;;;;;;1806969;78;21174;-73
2022/11/09 09:26:52;;;;;;;14.47;7.87;;;30.10;57.00;;;;;;1828457;78;21201;-74
2022/11/09 09:29:23;;;;;;;9.63;7.67;;;30.10;56.90;;;;;;1824897;78;21590;-74
2022/11/09 09:31:54;;;;;;;9.75;8.20;;;30.10;57.00;;;;;;1825215;78;21234;-75
2022/11/09 09:34:28;;;;;;;12.23;8.18;;;30.10;56.90;;;;;;1827759;77;21095;-73
2022/11/09 09:37:03;;;;;;;9.50;8.50;;;30.10;57.10;;;;;;1813909;78;21213;-74
2022/11/09 09:39:34;;;;;;;8.88;7.67;;;30.00;57.20;;;;;;1818686;78;21146;-74
2022/11/09 09:42:10;;;;;;;10.82;7.28;;;30.00;57.10;;;;;;1833866;78;21087;-74
2022/11/09 09:44:55;;;;;;;10.45;8.13;;;30.00;56.90;;;;;;1826483;78;21187;-73
2022/11/09 09:47:44;;;;;;;11.15;8.30;;;29.90;57.30;;;;;;1825684;78;21089;-73
2022/11/09 09:50:18;;;;;;;11.63;8.38;;;29.90;57.40;;;;;;1833000;78;21670;-75
2022/11/09 09:53:21;;;;;;;10.23;7.22;;;29.90;57.30;;;;;;1829228;77;21165;-74
2022/11/09 09:55:55;;;;;;;9.30;7.67;;;29.80;57.40;;;;;;1793447;79;21694;-75
2022/11/09 09:58:30;;;;;;;20.10;7.20;;;29.80;57.60;;;;;;1790457;80;21692;-74
2022/11/09 10:01:06;;;;;;;9.45;6.97;;;29.80;57.70;;;;;;1778824;80;21729;-74
2022/11/09 10:03:39;;;;;;;9.08;7.50;;;29.70;57.80;;;;;;1789381;80;21196;-75
2022/11/09 10:06:37;;;;;;;10.10;7.40;;;29.70;57.90;;;;;;1801808;79;21583;-74
2022/11/09 10:09:11;;;;;;;10.72;7.78;;;29.70;58.10;;;;;;1792146;80;21146;-74
2022/11/09 10:12:11;;;;;;;7.40;6.62;;;29.70;58.50;;;;;;1801536;79;21603;-76
2022/11/09 10:15:03;;;;;;;7.62;6.08;;;29.60;58.50;;;;;;1767326;81;21666;-74
2022/11/09 10:17:56;;;;;;;8.10;6.35;;;29.60;58.40;;;;;;1787466;79;21604;-75
2022/11/09 10:20:45;;;;;;;7.80;6.90;;;29.60;58.40;;;;;;1799964;79;21646;-72
2022/11/09 10:23:26;;;;;;;9.30;6.40;;;29.50;58.50;;;;;;1796991;78;21121;-74
2022/11/09 10:26:02;;;;;;;8.35;6.60;;;29.50;58.70;;;;;;1793516;80;21166;-75
2022/11/09 10:28:36;;;;;;;11.38;7.90;;;29.50;58.90;;;;;;1795177;78;21197;-75
2022/11/09 10:31:20;;;;;;;14.53;11.35;;;29.40;59.00;;;;;;1798980;79;21174;-76
2022/11/09 10:33:56;;;;;;;14.53;11.40;;;29.40;59.20;;;;;;1795822;80;21091;-75
2022/11/09 10:36:32;;;;;;;15.68;10.75;;;29.40;59.40;;;;;;1796479;80;21076;-76
2022/11/09 10:39:05;;;;;;;13.03;9.63;;;29.30;59.80;;;;;;1798138;79;21177;-76
2022/11/09 10:41:41;;;;;;;12.07;8.80;;;29.40;60.00;;;;;;1795978;79;21182;-75
2022/11/09 10:44:14;;;;;;;13.58;8.83;;;29.30;60.20;;;;;;1786902;80;21270;-76
2022/11/09 10:47:10;;;;;;;14.23;8.90;;;29.30;60.50;;;;;;1788774;80;21140;-75
2022/11/09 10:49:43;;;;;;;11.97;9.10;;;29.30;60.80;;;;;;1783419;79;21632;-75
2022/11/09 10:52:19;;;;;;;15.65;9.10;;;29.30;61.10;;;;;;1766376;81;21463;-73
2022/11/09 10:54:51;;;;;;;13.98;8.93;;;29.20;61.20;;;;;;1763892;80;21474;-76
2022/11/09 10:57:24;;;;;;;13.03;8.93;;;29.20;61.40;;;;;;1797757;79;21118;-76
2022/11/09 10:59:58;;;;;;;14.53;8.63;;;29.20;61.50;;;;;;1795993;79;21639;-75
2022/11/09 11:02:32;;;;;;;15.63;9.90;;;29.20;61.80;;;;;;1799308;79;21155;-75
2022/11/09 11:05:14;;;;;;;15.53;10.68;;;29.20;62.20;;;;;;1772656;80;21225;-74
2022/11/09 11:07:47;;;;;;;18.77;11.15;;;29.10;62.00;;;;;;1805629;79;21222;-74
2022/11/09 11:10:21;;;;;;;15.90;11.40;;;29.10;62.10;;;;;;1807731;79;21187;-75
2022/11/09 11:13:01;;;;;;;16.32;13.30;;;29.10;62.20;;;;;;1806478;79;21868;-76
2022/11/09 11:15:40;;;;;;;18.82;11.25;;;29.00;62.30;;;;;;1769957;80;21245;-76
2022/11/09 11:18:25;;;;;;;15.40;10.98;;;29.00;62.40;;;;;;1762691;81;21331;-76
2022/11/09 11:21:17;;;;;;;20.08;10.90;;;29.00;62.60;;;;;;1799485;79;21213;-76
2022/11/09 11:24:17;;;;;;;19.87;11.30;;;29.00;63.00;;;;;;1805011;79;21621;-78
2022/11/09 11:27:16;;;;;;;16.87;11.45;;;28.90;63.10;;;;;;1832174;78;21673;-78
2022/11/09 11:30:26;;;;;;;20.45;11.75;;;28.90;63.40;;;;;;1805742;79;21088;-78
2022/11/09 11:32:55;;;;;;;16.27;11.48;;;28.80;63.60;;;;;;1806218;79;21175;-77
2022/11/09 11:35:44;;;;;;;26.50;12.05;;;28.80;64.20;;;;;;1800415;79;21167;-78
2022/11/09 11:38:26;;;;;;;21.05;12.75;;;28.70;64.20;;;;;;1791510;80;21208;-79
2022/11/09 11:41:29;;;;;;;24.67;13.35;;;28.70;64.50;;;;;;1803320;79;21191;-78
2022/11/09 11:44:20;;;;;;;21.42;13.55;;;28.60;64.60;;;;;;1806238;79;21750;-75
2022/11/09 11:47:04;;;;;;;25.15;13.53;;;28.60;65.10;;;;;;1790091;79;21096;-76
2022/11/09 11:49:40;;;;;;;21.37;13.62;;;28.50;65.50;;;;;;1794396;79;21198;-78
2022/11/09 11:52:17;;;;;;;25.55;13.30;;;28.40;65.70;;;;;;1794940;79;21119;-78
2022/11/09 11:54:54;;;;;;;25.05;13.53;;;28.40;65.80;;;;;;1807138;78;21214;-79
2022/11/09 11:57:33;;;;;;;23.62;13.83;;;28.40;66.10;;;;;;1808777;79;21253;-78
2022/11/09 12:00:13;;;;;;;25.10;14.35;;;28.30;66.20;;;;;;1807139;78;22022;-79
2022/11/09 12:03:02;;;;;;;22.22;13.90;;;28.30;66.30;;;;;;1810692;79;21174;-77
2022/11/09 12:06:02;;;;;;;26.20;15.20;;;28.30;66.40;;;;;;1812488;79;21174;-78
2022/11/09 12:08:51;;;;;;;23.85;15.85;;;28.30;66.10;;;;;;1810973;79;21095;-76
2022/11/09 12:11:54;;;;;;;24.18;15.83;;;28.20;66.70;;;;;;1756128;81;21329;-77
2022/11/09 12:15:00;;;;;;;23.18;16.65;;;28.20;67.50;;;;;;1796525;79;21138;-76
2022/11/09 12:17:46;;;;;;;31.27;17.87;;;28.10;68.10;;;;;;1810080;79;21597;-78
2022/11/09 12:20:32;;;;;;;28.10;17.10;;;28.00;69.10;;;;;;1810384;79;21155;-77
2022/11/09 12:23:23;;;;;;;28.38;17.52;;;28.00;69.50;;;;;;1766399;79;21658;-77
2022/11/09 12:26:18;;;;;;;26.82;15.88;;;27.90;69.60;;;;;;1810883;79;21103;-82
2022/11/09 12:29:16;;;;;;;28.85;16.62;;;27.80;69.40;;;;;;1726430;82;21201;-79
2022/11/09 12:31:58;;;;;;;29.07;16.60;;;27.80;68.80;;;;;;1695831;84;21931;-77
2022/11/09 12:34:55;;;;;;;23.38;15.93;;;27.80;68.60;;;;;;1755739;80;21240;-80
2022/11/09 12:37:36;;;;;;;24.80;15.93;;;27.80;68.60;;;;;;1793996;79;21555;-79
2022/11/09 12:40:19;;;;;;;25.90;17.02;;;27.80;68.40;;;;;;1806960;79;21190;-78
2022/11/09 12:42:55;;;;;;;24.72;16.05;;;27.70;68.20;;;;;;1814460;79;21201;-79
2022/11/09 12:45:28;;;;;;;25.72;16.55;;;27.70;68.10;;;;;;1804163;79;21162;-81
2022/11/09 12:48:05;;;;;;;29.70;18.17;;;27.70;68.00;;;;;;1812724;79;21159;-77
2022/11/09 12:50:36;;;;;;;23.55;16.25;;;27.70;67.60;;;;;;1811014;79;21713;-78
2022/11/09 12:53:08;;;;;;;28.98;17.80;;;27.70;67.40;;;;;;1804255;79;21156;-81
2022/11/09 12:55:44;;;;;;;21.12;16.23;;;27.70;67.80;;;;;;1772524;80;21217;-76
2022/11/09 12:58:29;;;;;;;27.00;16.75;;;27.70;67.10;;;;;;1713511;84;21817;-78
2022/11/09 13:01:03;;;;;;;26.60;16.32;;;27.70;65.90;;;;;;1785517;79;21692;-78
2022/11/09 13:03:40;;;;;;;22.15;15.15;;;27.70;65.80;;;;;;1803265;78;21209;-78
2022/11/09 13:06:15;;;;;;;21.23;15.70;;;27.70;65.40;;;;;;1813192;78;21090;-79
2022/11/09 13:09:08;;;;;;;24.55;15.95;;;27.70;65.30;;;;;;1811426;78;21840;-78
2022/11/09 13:11:44;;;;;;;23.98;16.70;;;27.70;65.80;;;;;;1731889;81;21274;-78
2022/11/09 13:14:29;;;;;;;24.65;15.85;;;27.60;65.30;;;;;;1734718;81;21115;-76
2022/11/09 13:17:02;;;;;;;25.57;15.43;;;27.70;65.20;;;;;;1780315;78;21190;-78